createdAt,value
2023-01-12T00:02:20.902Z,8.50
2023-01-12T00:04:49.041Z,8.50
2023-01-12T00:07:18.214Z,8.50
2023-01-12T00:09:46.420Z,8.50
2023-01-12T00:12:14.593Z,8.50
2023-01-12T00:14:42.808Z,8.40
2023-01-12T00:17:11.899Z,8.50
2023-01-12T00:19:41.522Z,8.50
2023-01-12T00:22:11.903Z,8.50
2023-01-12T00:24:43.845Z,8.50
2023-01-12T00:27:14.638Z,8.50
2023-01-12T00:29:43.254Z,8.50
2023-01-12T00:32:15.159Z,8.50
2023-01-12T00:34:45.310Z,8.50
2023-01-12T00:37:13.809Z,8.50
2023-01-12T00:39:45.919Z,8.50
2023-01-12T00:42:42.397Z,8.50
2023-01-12T00:45:24.351Z,8.50
2023-01-12T00:47:53.565Z,8.50
2023-01-12T00:50:23.977Z,8.50
2023-01-12T00:52:52.205Z,8.50
2023-01-12T00:55:20.434Z,8.50
2023-01-12T00:57:48.771Z,8.50
2023-01-12T01:00:18.533Z,8.50
2023-01-12T01:02:46.810Z,8.50
2023-01-12T01:05:15.372Z,8.50
2023-01-12T01:07:46.848Z,8.50
2023-01-12T01:10:16.852Z,8.50
2023-01-12T01:12:45.336Z,8.50
2023-01-12T01:15:13.890Z,8.40
2023-01-12T01:17:42.186Z,8.40
2023-01-12T01:20:12.547Z,8.40
2023-01-12T01:22:40.751Z,8.40
2023-01-12T01:25:11.548Z,8.40
2023-01-12T01:27:39.962Z,8.40
2023-01-12T01:30:10.156Z,8.40
2023-01-12T01:32:38.369Z,8.40
2023-01-12T01:35:07.168Z,8.30
2023-01-12T01:37:35.299Z,8.30
2023-01-12T01:40:03.446Z,8.30
2023-01-12T01:42:32.985Z,8.30
2023-01-12T01:45:05.135Z,8.30
2023-01-12T01:47:41.942Z,8.30
2023-01-12T01:50:19.465Z,8.30
2023-01-12T01:52:57.124Z,8.30
2023-01-12T01:55:33.879Z,8.20
2023-01-12T01:58:09.052Z,8.20
2023-01-12T02:00:39.568Z,8.20
2023-01-12T02:03:09.526Z,8.20
2023-01-12T02:05:40.672Z,8.20
2023-01-12T02:08:17.593Z,8.10
2023-01-12T02:10:46.313Z,8.10
2023-01-12T02:13:34.551Z,8.10
2023-01-12T02:16:22.808Z,8.10
2023-01-12T02:19:29.062Z,8.10
2023-01-12T02:23:05.572Z,8.00
2023-01-12T02:26:33.561Z,7.90
2023-01-12T02:29:55.500Z,7.90
2023-01-12T02:32:33.721Z,7.90
2023-01-12T02:35:17.585Z,7.90
2023-01-12T02:37:58.068Z,7.90
2023-01-12T02:40:39.598Z,7.90
2023-01-12T02:43:16.195Z,7.90
2023-01-12T02:45:54.706Z,7.80
2023-01-12T02:48:31.256Z,7.80
2023-01-12T02:51:08.063Z,7.60
2023-01-12T02:53:43.439Z,7.60
2023-01-12T02:56:15.283Z,7.60
2023-01-12T02:58:49.345Z,7.50
2023-01-12T03:01:21.601Z,7.50
2023-01-12T03:03:53.041Z,7.50
2023-01-12T03:06:21.210Z,7.50
2023-01-12T03:08:52.358Z,7.40
2023-01-12T03:11:22.726Z,7.30
2023-01-12T03:13:57.140Z,7.30
2023-01-12T03:16:31.181Z,7.20
2023-01-12T03:19:09.357Z,7.20
2023-01-12T03:21:41.293Z,7.10
2023-01-12T03:24:13.423Z,7.10
2023-01-12T03:26:47.617Z,7.00
2023-01-12T03:29:23.837Z,7.00
2023-01-12T03:31:52.307Z,6.90
2023-01-12T03:34:22.287Z,6.80
2023-01-12T03:36:59.414Z,6.80
2023-01-12T03:39:38.052Z,6.70
2023-01-12T03:42:13.109Z,6.70
2023-01-12T03:44:48.429Z,6.60
2023-01-12T03:47:25.238Z,6.60
2023-01-12T03:50:00.305Z,6.60
2023-01-12T03:52:31.244Z,6.60
2023-01-12T03:55:01.582Z,6.50
2023-01-12T03:57:31.032Z,6.50
2023-01-12T04:00:03.011Z,6.50
2023-01-12T04:02:40.776Z,6.40
2023-01-12T04:05:14.038Z,6.40
2023-01-12T04:07:42.436Z,6.40
2023-01-12T04:10:11.747Z,6.40
2023-01-12T04:12:39.821Z,6.40
2023-01-12T04:15:09.235Z,6.40
2023-01-12T04:17:37.371Z,6.40
2023-01-12T04:20:17.103Z,6.30
2023-01-12T04:22:44.745Z,6.30
2023-01-12T04:25:16.027Z,6.30
2023-01-12T04:27:48.519Z,6.30
2023-01-12T04:30:18.668Z,6.20
2023-01-12T04:32:47.323Z,6.20
2023-01-12T04:35:17.338Z,6.10
2023-01-12T04:37:46.450Z,6.10
2023-01-12T04:40:17.598Z,6.10
2023-01-12T04:43:08.251Z,6.10
2023-01-12T04:45:40.701Z,6.10
2023-01-12T04:48:12.163Z,6.00
2023-01-12T04:50:44.263Z,6.00
2023-01-12T04:53:13.996Z,6.00
2023-01-12T04:55:44.686Z,5.90
2023-01-12T04:58:12.795Z,5.90
2023-01-12T05:00:40.988Z,5.90
2023-01-12T05:03:14.249Z,5.80
2023-01-12T05:05:43.978Z,5.80
2023-01-12T05:08:29.889Z,5.70
2023-01-12T05:11:01.092Z,5.70
2023-01-12T05:13:32.424Z,5.70
2023-01-12T05:16:11.386Z,5.70
2023-01-12T05:18:39.743Z,5.70
2023-01-12T05:21:09.799Z,5.70
2023-01-12T05:23:38.168Z,5.70
2023-01-12T05:26:07.626Z,5.80
2023-01-12T05:28:36.004Z,5.80
2023-01-12T05:31:08.307Z,5.80
2023-01-12T05:33:37.595Z,5.80
2023-01-12T05:36:09.828Z,5.90
2023-01-12T05:38:38.067Z,6.00
2023-01-12T05:41:10.144Z,6.00
2023-01-12T05:43:52.808Z,6.00
2023-01-12T05:46:24.082Z,6.10
2023-01-12T05:48:53.588Z,6.10
2023-01-12T05:51:25.168Z,6.20
2023-01-12T05:53:53.455Z,6.20
2023-01-12T05:56:26.122Z,6.20
2023-01-12T05:58:57.050Z,6.30
2023-01-12T06:01:25.691Z,6.30
2023-01-12T06:03:56.335Z,6.30
2023-01-12T06:06:27.984Z,6.40
2023-01-12T06:08:56.181Z,6.40
2023-01-12T06:11:42.565Z,6.50
2023-01-12T06:14:11.557Z,6.50
2023-01-12T06:16:42.274Z,6.50
2023-01-12T06:19:13.010Z,6.60
2023-01-12T06:21:42.876Z,6.60
2023-01-12T06:24:11.299Z,6.60
2023-01-12T06:26:39.518Z,6.60
2023-01-12T06:29:07.889Z,6.70
2023-01-12T06:31:37.065Z,6.70
2023-01-12T06:34:07.461Z,6.70
2023-01-12T06:36:35.950Z,6.70
2023-01-12T06:39:05.882Z,6.70
2023-01-12T06:41:53.203Z,6.70
2023-01-12T06:44:21.444Z,6.70
2023-01-12T06:46:49.790Z,6.70
2023-01-12T06:49:18.393Z,6.70
2023-01-12T06:51:51.217Z,6.80
2023-01-12T06:54:23.356Z,6.80
2023-01-12T06:56:51.529Z,6.80
2023-01-12T06:59:19.587Z,6.80
2023-01-12T07:01:47.881Z,6.80
2023-01-12T07:04:16.123Z,6.80
2023-01-12T07:06:44.368Z,6.80
2023-01-12T07:09:12.532Z,6.80
2023-01-12T07:11:42.222Z,6.80
2023-01-12T07:14:10.390Z,6.80
2023-01-12T07:16:40.120Z,6.80
2023-01-12T07:19:08.291Z,6.80
2023-01-12T07:21:36.418Z,6.80
2023-01-12T07:24:04.743Z,6.80
2023-01-12T07:26:32.895Z,6.90
2023-01-12T07:29:02.507Z,6.90
2023-01-12T07:31:30.767Z,6.90
2023-01-12T07:33:58.979Z,6.90
2023-01-12T07:36:27.074Z,6.90
2023-01-12T07:38:55.400Z,6.90
2023-01-12T07:41:41.317Z,7.00
2023-01-12T07:44:11.632Z,7.00
2023-01-12T07:46:39.869Z,7.00
2023-01-12T07:49:08.208Z,7.00
2023-01-12T07:51:36.564Z,7.00
2023-01-12T07:54:04.937Z,7.00
2023-01-12T07:56:33.265Z,7.00
2023-01-12T07:59:01.428Z,7.00
2023-01-12T08:01:32.468Z,7.00
2023-01-12T08:04:00.686Z,7.10
2023-01-12T08:06:28.920Z,7.20
2023-01-12T08:08:57.280Z,7.20
2023-01-12T08:11:27.480Z,7.30
2023-01-12T08:13:57.186Z,7.40
2023-01-12T08:16:31.874Z,7.40
2023-01-12T08:19:05.343Z,7.40
2023-01-12T08:21:45.056Z,7.40
2023-01-12T08:24:21.282Z,7.50
2023-01-12T08:26:54.421Z,7.50
2023-01-12T08:29:31.943Z,7.60
2023-01-12T08:34:42.418Z,7.70
2023-01-12T08:37:17.296Z,7.70
2023-01-12T08:39:47.312Z,7.80
2023-01-12T08:42:15.476Z,7.90
2023-01-12T08:44:43.820Z,8.00
2023-01-12T08:47:20.658Z,8.10
2023-01-12T08:49:48.835Z,8.20
2023-01-12T08:52:17.463Z,8.20
2023-01-12T08:54:46.027Z,8.20
2023-01-12T08:57:16.080Z,8.30
2023-01-12T08:59:44.360Z,8.30
2023-01-12T09:02:13.129Z,8.40
2023-01-12T09:04:43.078Z,8.40
2023-01-12T09:07:12.477Z,8.40
2023-01-12T09:09:41.017Z,8.50
2023-01-12T09:12:09.220Z,8.50
2023-01-12T09:14:38.692Z,8.50
2023-01-12T09:17:07.818Z,8.50
2023-01-12T09:19:35.969Z,8.50
2023-01-12T09:22:05.481Z,8.50
2023-01-12T09:24:33.653Z,8.50
2023-01-12T09:27:01.752Z,8.60
2023-01-12T09:29:29.852Z,8.60
2023-01-12T09:31:58.204Z,8.70
2023-01-12T09:34:26.374Z,8.70
2023-01-12T09:36:56.529Z,8.80
2023-01-12T09:39:28.836Z,8.80
2023-01-12T09:42:17.898Z,8.90
2023-01-12T09:45:07.322Z,8.90
2023-01-12T09:47:41.270Z,9.00
2023-01-12T09:50:14.792Z,9.00
2023-01-12T09:52:49.373Z,9.10
2023-01-12T09:55:22.557Z,9.10
2023-01-12T09:58:07.395Z,9.10
2023-01-12T10:00:35.787Z,9.10
2023-01-12T10:03:15.062Z,9.10
2023-01-12T10:05:49.435Z,9.10
2023-01-12T10:08:27.472Z,9.10
2023-01-12T10:11:18.248Z,9.10
2023-01-12T10:14:15.114Z,9.10
2023-01-12T10:16:58.510Z,9.10
2023-01-12T10:19:35.764Z,9.10
2023-01-12T10:22:36.723Z,9.20
2023-01-12T10:25:31.675Z,9.10
2023-01-12T10:28:07.428Z,9.20
2023-01-12T10:30:38.767Z,9.20
2023-01-12T10:33:12.992Z,9.30
2023-01-12T10:35:53.822Z,9.40
2023-01-12T10:38:32.280Z,9.50
2023-01-12T10:41:18.306Z,9.60
2023-01-12T10:44:07.736Z,9.60
2023-01-12T10:46:38.874Z,9.60
2023-01-12T10:49:20.378Z,9.70
2023-01-12T10:51:56.260Z,9.70
2023-01-12T10:54:26.756Z,9.70
2023-01-12T10:57:00.009Z,9.70
2023-01-12T10:59:33.458Z,9.70
2023-01-12T11:02:16.780Z,9.70
2023-01-12T11:04:48.267Z,9.80
2023-01-12T11:07:19.445Z,9.80
2023-01-12T11:09:47.999Z,9.80
2023-01-12T11:12:29.604Z,9.90
2023-01-12T11:15:17.512Z,9.80
2023-01-12T11:18:16.591Z,9.90
2023-01-12T11:20:51.271Z,10.00
2023-01-12T11:23:28.391Z,9.90
2023-01-12T11:25:57.920Z,10.00
2023-01-12T11:28:35.784Z,10.00
2023-01-12T11:31:13.502Z,10.10
2023-01-12T11:33:48.482Z,10.10
2023-01-12T11:36:26.271Z,10.10
2023-01-12T11:39:02.729Z,10.20
2023-01-12T11:41:40.217Z,10.20
2023-01-12T11:44:19.281Z,10.20
2023-01-12T11:46:56.644Z,10.20
2023-01-12T11:49:39.334Z,10.20
2023-01-12T11:52:13.267Z,10.30
2023-01-12T11:54:42.819Z,10.30
2023-01-12T11:57:51.256Z,10.30
2023-01-12T12:00:37.645Z,10.30
2023-01-12T12:03:32.329Z,10.40
2023-01-12T12:06:22.041Z,10.40
2023-01-12T12:09:03.038Z,10.40
2023-01-12T12:11:43.304Z,10.50
2023-01-12T12:14:31.863Z,10.50
2023-01-12T12:17:09.284Z,10.50
2023-01-12T12:19:54.467Z,10.50
2023-01-12T12:22:45.883Z,10.50
2023-01-12T12:25:27.155Z,10.60
2023-01-12T12:28:23.342Z,10.60
2023-01-12T12:31:17.382Z,10.70
2023-01-12T12:34:13.097Z,10.80
2023-01-12T12:36:51.397Z,10.70
2023-01-12T12:39:45.260Z,10.80
2023-01-12T12:42:58.447Z,10.80
2023-01-12T12:45:41.088Z,10.80
2023-01-12T12:48:16.699Z,10.90
2023-01-12T12:50:57.531Z,10.90
2023-01-12T12:53:32.830Z,11.00
2023-01-12T12:56:05.637Z,11.00
2023-01-12T12:58:48.851Z,11.00
2023-01-12T13:01:56.504Z,11.00
2023-01-12T13:05:05.203Z,11.00
2023-01-12T13:07:42.391Z,11.00
2023-01-12T13:10:31.689Z,11.10
2023-01-12T13:13:05.747Z,11.10
2023-01-12T13:15:37.606Z,11.20
2023-01-12T13:18:07.407Z,11.20
2023-01-12T13:21:01.975Z,11.20
2023-01-12T13:23:52.530Z,11.20
2023-01-12T13:26:52.348Z,11.20
2023-01-12T13:29:50.499Z,11.20
2023-01-12T13:32:58.013Z,11.20
2023-01-12T13:36:04.302Z,11.20
2023-01-12T13:38:50.040Z,11.10
2023-01-12T13:41:44.054Z,11.20
2023-01-12T13:44:21.343Z,11.20
2023-01-12T13:46:52.339Z,11.10
2023-01-12T13:49:31.502Z,11.00
2023-01-12T13:52:06.730Z,11.00
2023-01-12T13:54:35.992Z,11.00
2023-01-12T13:57:10.574Z,11.00
2023-01-12T13:59:40.164Z,11.00
2023-01-12T14:02:19.275Z,11.00
2023-01-12T14:05:05.702Z,11.10
2023-01-12T14:07:53.729Z,11.00
2023-01-12T14:10:36.950Z,11.10
2023-01-12T14:13:32.891Z,11.10
2023-01-12T14:16:28.001Z,11.10
2023-01-12T14:18:56.310Z,11.00
2023-01-12T14:21:28.912Z,11.10
2023-01-12T14:24:16.268Z,11.10
2023-01-12T14:26:44.699Z,11.10
2023-01-12T14:29:13.720Z,11.10
2023-01-12T14:31:48.483Z,11.10
2023-01-12T14:34:32.477Z,11.10
2023-01-12T14:37:01.951Z,11.10
2023-01-12T14:39:40.936Z,11.10
2023-01-12T14:42:36.080Z,11.10
2023-01-12T14:45:38.848Z,11.00
2023-01-12T14:48:26.139Z,11.10
2023-01-12T14:51:19.243Z,11.10
2023-01-12T14:53:49.645Z,11.10
2023-01-12T14:56:22.443Z,11.10
2023-01-12T14:58:50.972Z,11.10
2023-01-12T15:01:36.983Z,11.10
2023-01-12T15:04:17.170Z,11.10
2023-01-12T15:06:47.442Z,11.10
2023-01-12T15:09:29.261Z,11.10
2023-01-12T15:11:57.769Z,11.10
2023-01-12T15:14:30.096Z,11.10
2023-01-12T15:17:15.711Z,11.10
2023-01-12T15:20:03.062Z,11.00
2023-01-12T15:22:49.571Z,11.00
2023-01-12T15:25:38.228Z,11.00
2023-01-12T15:28:11.184Z,11.00
2023-01-12T15:30:40.406Z,11.00
2023-01-12T15:33:10.555Z,11.00
2023-01-12T15:35:45.846Z,11.00
2023-01-12T15:38:18.051Z,11.00
2023-01-12T15:40:48.591Z,11.00
2023-01-12T15:43:18.747Z,10.90
2023-01-12T15:45:48.657Z,11.00
2023-01-12T15:48:16.798Z,11.00
2023-01-12T15:50:47.335Z,11.00
2023-01-12T15:53:20.791Z,11.00
2023-01-12T15:55:50.124Z,11.00
2023-01-12T15:58:19.545Z,11.00
2023-01-12T16:00:48.353Z,11.00
2023-01-12T16:03:49.046Z,10.90
2023-01-12T16:06:08.100Z,10.90
2023-01-12T16:08:36.371Z,10.90
2023-01-12T16:11:13.256Z,11.00
2023-01-12T16:13:42.106Z,11.00
2023-01-12T16:16:16.919Z,11.00
2023-01-12T16:18:45.416Z,11.00
2023-01-12T16:21:18.083Z,10.90
2023-01-12T16:23:46.469Z,10.90
2023-01-12T16:26:14.780Z,10.90
2023-01-12T16:28:43.129Z,10.80
2023-01-12T16:31:14.740Z,10.80
2023-01-12T16:33:44.473Z,10.70
2023-01-12T16:36:16.020Z,10.70
2023-01-12T16:38:44.404Z,10.70
2023-01-12T16:41:15.858Z,10.60
2023-01-12T16:43:43.994Z,10.60
2023-01-12T16:46:13.526Z,10.60
2023-01-12T16:48:42.476Z,10.50
2023-01-12T16:51:18.541Z,10.50
2023-01-12T16:53:48.311Z,10.50
2023-01-12T16:56:17.986Z,10.40
2023-01-12T16:58:48.294Z,10.40
2023-01-12T17:01:21.013Z,10.40
2023-01-12T17:03:50.645Z,10.40
2023-01-12T17:06:22.712Z,10.40
2023-01-12T17:08:50.871Z,10.30
2023-01-12T17:11:20.740Z,10.30
2023-01-12T17:13:52.438Z,10.30
2023-01-12T17:16:22.408Z,10.30
2023-01-12T17:18:51.072Z,10.20
2023-01-12T17:21:21.670Z,10.30
2023-01-12T17:23:50.169Z,10.20
2023-01-12T17:26:20.144Z,10.20
2023-01-12T17:28:48.743Z,10.20
2023-01-12T17:31:20.468Z,10.20
2023-01-12T17:33:50.055Z,10.20
2023-01-12T17:36:20.362Z,10.20
2023-01-12T17:38:48.495Z,10.20
2023-01-12T17:41:31.894Z,10.20
2023-01-12T17:44:02.671Z,10.20
2023-01-12T17:46:31.631Z,10.20
2023-01-12T17:49:00.168Z,10.20
2023-01-12T17:51:29.867Z,10.20
2023-01-12T17:53:59.150Z,10.20
2023-01-12T17:56:31.275Z,10.20
2023-01-12T17:59:00.769Z,10.10
2023-01-12T18:01:33.494Z,10.20
2023-01-12T18:04:02.976Z,10.10
2023-01-12T18:06:32.621Z,10.10
2023-01-12T18:09:01.116Z,10.10
2023-01-12T18:11:31.083Z,10.20
2023-01-12T18:14:01.636Z,10.20
2023-01-12T18:16:30.825Z,10.20
2023-01-12T18:19:00.329Z,10.20
2023-01-12T18:21:28.847Z,10.20
2023-01-12T18:23:59.009Z,10.20
2023-01-12T18:26:30.992Z,10.20
2023-01-12T18:29:01.692Z,10.20
2023-01-12T18:31:32.927Z,10.20
2023-01-12T18:34:04.687Z,10.20
2023-01-12T18:36:36.134Z,10.20
2023-01-12T18:39:08.223Z,10.20
2023-01-12T18:41:54.988Z,10.20
2023-01-12T18:44:23.356Z,10.20
2023-01-12T18:47:09.174Z,10.20
2023-01-12T18:49:38.237Z,10.20
2023-01-12T18:52:33.250Z,10.20
2023-01-12T18:55:02.947Z,10.20
2023-01-12T18:57:33.725Z,10.20
2023-01-12T19:00:14.242Z,10.20
2023-01-12T19:02:42.568Z,10.20
2023-01-12T19:05:20.419Z,10.20
2023-01-12T19:08:04.523Z,10.20
2023-01-12T19:10:35.181Z,10.20
2023-01-12T19:13:20.894Z,10.20
2023-01-12T19:16:06.913Z,10.20
2023-01-12T19:18:36.909Z,10.20
2023-01-12T19:21:27.278Z,10.20
2023-01-12T19:24:09.386Z,10.20
2023-01-12T19:26:56.632Z,10.20
2023-01-12T19:29:24.862Z,10.20
2023-01-12T19:31:53.026Z,10.20
2023-01-12T19:34:24.736Z,10.20
2023-01-12T19:36:55.428Z,10.20
2023-01-12T19:39:34.390Z,10.20
2023-01-12T19:42:21.568Z,10.20
2023-01-12T19:44:49.692Z,10.30
2023-01-12T19:47:17.880Z,10.30
2023-01-12T19:49:46.063Z,10.20
2023-01-12T19:52:14.209Z,10.30
2023-01-12T19:54:42.443Z,10.20
2023-01-12T19:57:11.967Z,10.30
2023-01-12T19:59:40.103Z,10.20
2023-01-12T20:02:10.210Z,10.30
2023-01-12T20:04:38.975Z,10.30
2023-01-12T20:07:09.557Z,10.30
2023-01-12T20:09:38.471Z,10.30
2023-01-12T20:12:11.607Z,10.30
2023-01-12T20:14:39.808Z,10.30
2023-01-12T20:17:08.524Z,10.30
2023-01-12T20:19:37.268Z,10.30
2023-01-12T20:22:05.604Z,10.30
2023-01-12T20:24:33.893Z,10.30
2023-01-12T20:27:02.565Z,10.30
2023-01-12T20:29:34.055Z,10.40
2023-01-12T20:32:02.486Z,10.30
2023-01-12T20:34:32.855Z,10.40
2023-01-12T20:37:01.241Z,10.40
2023-01-12T20:39:30.827Z,10.40
2023-01-12T20:41:58.943Z,10.50
2023-01-12T20:44:27.146Z,10.50
2023-01-12T20:46:56.695Z,10.50
2023-01-12T20:49:25.141Z,10.60
2023-01-12T20:51:53.390Z,10.60
2023-01-12T20:54:21.625Z,10.60
2023-01-12T20:56:49.817Z,10.60
2023-01-12T20:59:17.955Z,10.60
2023-01-12T21:01:46.279Z,10.60
2023-01-12T21:04:15.907Z,10.70
2023-01-12T21:06:44.138Z,10.70
2023-01-12T21:09:12.537Z,10.70
2023-01-12T21:11:42.226Z,10.70
2023-01-12T21:14:10.399Z,10.70
2023-01-12T21:16:38.624Z,10.70
2023-01-12T21:19:07.706Z,10.70
2023-01-12T21:21:37.753Z,10.60
2023-01-12T21:24:06.650Z,10.60
2023-01-12T21:26:34.820Z,10.60
2023-01-12T21:29:03.142Z,10.60
2023-01-12T21:31:31.702Z,10.70
2023-01-12T21:34:00.181Z,10.70
2023-01-12T21:36:28.368Z,10.70
2023-01-12T21:38:59.120Z,10.70
2023-01-12T21:41:27.712Z,10.60
2023-01-12T21:43:55.017Z,10.60
2023-01-12T21:46:23.259Z,10.60
2023-01-12T21:48:51.500Z,10.60
2023-01-12T21:51:19.828Z,10.60
2023-01-12T21:53:48.080Z,10.60
2023-01-12T21:56:17.551Z,10.60
2023-01-12T21:58:45.730Z,10.60
2023-01-12T22:01:15.778Z,10.60
2023-01-12T22:03:45.058Z,10.60
2023-01-12T22:06:14.720Z,10.60
2023-01-12T22:08:43.780Z,10.50
2023-01-12T22:11:14.931Z,10.60
2023-01-12T22:13:44.916Z,10.60
2023-01-12T22:16:16.238Z,10.60
2023-01-12T22:18:49.036Z,10.60
2023-01-12T22:21:19.380Z,10.60
2023-01-12T22:23:48.011Z,10.60
2023-01-12T22:26:17.669Z,10.60
2023-01-12T22:28:51.684Z,10.60
2023-01-12T22:31:25.036Z,10.70
2023-01-12T22:33:58.436Z,10.60
2023-01-12T22:36:27.089Z,10.60
2023-01-12T22:38:55.561Z,10.70
2023-01-12T22:41:24.770Z,10.70
2023-01-12T22:43:54.445Z,10.70
2023-01-12T22:46:25.575Z,10.70
2023-01-12T22:48:56.286Z,10.70
2023-01-12T22:51:27.559Z,10.70
2023-01-12T22:53:57.557Z,10.70
2023-01-12T22:56:26.310Z,10.70
2023-01-12T22:58:57.666Z,10.60
2023-01-12T23:01:27.014Z,10.70
2023-01-12T23:03:57.135Z,10.70
2023-01-12T23:06:26.907Z,10.70
2023-01-12T23:08:55.353Z,10.70
2023-01-12T23:11:26.493Z,10.70
2023-01-12T23:13:56.582Z,10.70
2023-01-12T23:16:24.958Z,10.70
2023-01-12T23:18:55.185Z,10.70
2023-01-12T23:21:26.339Z,10.70
2023-01-12T23:23:56.808Z,10.70
2023-01-12T23:26:27.223Z,10.70
2023-01-12T23:29:00.207Z,10.70
2023-01-12T23:31:33.121Z,10.70
2023-01-12T23:34:01.710Z,10.80
2023-01-12T23:36:31.217Z,10.80
2023-01-12T23:39:02.875Z,10.80
2023-01-12T23:41:34.405Z,10.80
2023-01-12T23:44:07.563Z,10.80
2023-01-12T23:46:39.317Z,10.80
2023-01-12T23:49:07.664Z,10.80
2023-01-12T23:51:36.715Z,10.80
2023-01-12T23:54:05.371Z,10.80
2023-01-12T23:56:34.925Z,10.80
2023-01-12T23:59:04.388Z,10.80
